Time;durP1;ratioP1;P1;durP2;ratioP2;P2;SDS_P1;SDS_P2;PMS_P1;PMS_P2;Temp;Humidity;BMP_temperature;BMP_pressure;BME280_temperature;BME280_humidity;BME280_pressure;Samples;Min_cycle;Max_cycle;Signal;HPM_P1;HPM_P2
2022/06/09 03:01:40;;;;;;;38.07;35.97;;;13.90;99.90;;;;;;5464841;22;20268;-76
2022/06/09 03:04:07;;;;;;;44.77;42.57;;;13.90;99.90;;;;;;5049871;28;20189;-76
2022/06/09 03:06:33;;;;;;;45.73;43.53;;;13.90;99.90;;;;;;5040032;28;20210;-75
2022/06/09 03:09:00;;;;;;;40.00;38.03;;;13.90;99.90;;;;;;5030227;28;20268;-75
2022/06/09 03:11:25;;;;;;;59.93;56.93;;;14.00;99.90;;;;;;5031626;28;20749;-78
2022/06/09 03:13:52;;;;;;;37.47;35.67;;;14.00;99.90;;;;;;5056633;23;20227;-80
2022/06/09 03:16:18;;;;;;;6.23;5.83;;;14.00;99.90;;;;;;5015792;28;20203;-81
2022/06/09 03:18:45;;;;;;;8.53;8.10;;;14.00;99.90;;;;;;5023856;28;20184;-79
2022/06/09 03:21:12;;;;;;;10.90;10.40;;;14.00;99.90;;;;;;5019328;28;20179;-79
2022/06/09 03:23:39;;;;;;;10.77;10.27;;;14.00;99.90;;;;;;5016204;28;20203;-79
2022/06/09 03:26:06;;;;;;;15.67;14.77;;;14.00;99.90;;;;;;5015389;28;20264;-78
2022/06/09 03:28:32;;;;;;;14.80;14.00;;;14.00;99.90;;;;;;5016637;28;20318;-79
2022/06/09 03:30:59;;;;;;;19.93;19.00;;;14.00;99.90;;;;;;5016431;28;20662;-79
2022/06/09 03:33:25;;;;;;;10.47;9.87;;;14.00;99.90;;;;;;5015606;28;20207;-79
2022/06/09 03:35:51;;;;;;;14.90;14.20;;;14.00;99.90;;;;;;5015218;28;20188;-80
2022/06/09 03:38:17;;;;;;;9.27;8.63;;;14.00;99.90;;;;;;5013975;28;20214;-80
2022/06/09 03:40:43;;;;;;;10.87;9.93;;;14.00;99.90;;;;;;5018587;28;20202;-79
2022/06/09 03:43:09;;;;;;;11.97;11.37;;;14.10;99.90;;;;;;5020187;28;20208;-79
2022/06/09 03:45:35;;;;;;;10.13;9.53;;;14.10;99.90;;;;;;5016025;28;20191;-80
2022/06/09 03:48:01;;;;;;;14.43;13.40;;;14.10;99.90;;;;;;5018429;28;20180;-79
2022/06/09 03:50:29;;;;;;;9.53;9.10;;;14.10;99.90;;;;;;5017948;28;20589;-80
2022/06/09 03:52:55;;;;;;;26.07;24.70;;;14.10;99.90;;;;;;5008832;28;20555;-79
2022/06/09 03:55:22;;;;;;;34.33;32.63;;;14.20;99.90;;;;;;5013590;28;20298;-80
2022/06/09 03:57:48;;;;;;;32.47;30.77;;;14.20;99.90;;;;;;5015178;28;20310;-80
2022/06/09 04:00:21;;;;;;;13.93;13.20;;;14.20;99.90;;;;;;4997958;28;20176;-80
2022/06/09 04:02:47;;;;;;;6.33;6.03;;;14.20;99.90;;;;;;4997552;28;20187;-80
2022/06/09 04:05:13;;;;;;;10.30;9.70;;;14.30;99.90;;;;;;4995879;28;20204;-79
2022/06/09 04:07:40;;;;;;;10.07;9.50;;;14.20;99.90;;;;;;4993299;28;20204;-79
2022/06/09 04:10:06;;;;;;;10.50;10.03;;;14.20;99.90;;;;;;4996397;28;20184;-80
2022/06/09 04:12:34;;;;;;;13.77;12.67;;;14.30;99.90;;;;;;5016541;28;20542;-80
2022/06/09 04:14:59;;;;;;;11.60;10.90;;;14.30;99.90;;;;;;5018431;28;20220;-79
2022/06/09 04:17:25;;;;;;;15.83;14.50;;;14.30;99.90;;;;;;5028287;28;20219;-80
2022/06/09 04:19:51;;;;;;;9.63;9.17;;;14.40;99.90;;;;;;5027902;28;20190;-79
2022/06/09 04:22:17;;;;;;;19.03;17.97;;;14.40;99.90;;;;;;5022367;28;20195;-80
2022/06/09 04:24:42;;;;;;;11.67;11.00;;;14.40;99.90;;;;;;5033949;28;20282;-80
2022/06/09 04:27:09;;;;;;;11.50;10.90;;;14.50;99.90;;;;;;5025512;28;20188;-81
2022/06/09 04:29:34;;;;;;;9.63;9.00;;;14.60;99.90;;;;;;5032431;28;20243;-80
2022/06/09 04:32:00;;;;;;;9.20;8.70;;;14.60;99.90;;;;;;5017511;28;20187;-83
2022/06/09 04:34:26;;;;;;;15.60;14.67;;;14.60;99.90;;;;;;5014700;28;20261;-80
2022/06/09 04:36:52;;;;;;;12.93;12.10;;;14.70;99.90;;;;;;5013201;28;20242;-81
2022/06/09 04:39:18;;;;;;;21.63;20.03;;;14.80;99.90;;;;;;5015139;28;20176;-80
2022/06/09 04:41:44;;;;;;;35.63;33.87;;;14.80;99.90;;;;;;5017146;28;20184;-80
2022/06/09 04:44:10;;;;;;;54.23;51.00;;;14.90;99.90;;;;;;5014474;28;20346;-80
2022/06/09 04:46:35;;;;;;;77.23;73.33;;;15.00;99.90;;;;;;5015203;28;20183;-79
2022/06/09 04:49:01;;;;;;;74.93;70.87;;;15.10;99.90;;;;;;5015822;28;20729;-80
2022/06/09 04:51:27;;;;;;;34.07;32.43;;;15.20;99.90;;;;;;5020998;28;20180;-78
2022/06/09 04:53:53;;;;;;;8.27;7.87;;;15.30;99.90;;;;;;5021188;28;20568;-80
2022/06/09 04:56:21;;;;;;;7.13;6.77;;;15.40;99.90;;;;;;5016331;28;20235;-80
2022/06/09 04:58:48;;;;;;;7.97;7.53;;;15.50;99.90;;;;;;5015006;28;20180;-80
2022/06/09 05:01:24;;;;;;;5.80;5.40;;;15.60;99.90;;;;;;5014257;28;20210;-80
2022/06/09 05:03:51;;;;;;;16.63;15.67;;;15.70;99.90;;;;;;5017041;28;20206;-81
2022/06/09 05:06:19;;;;;;;35.10;33.20;;;15.80;99.90;;;;;;5016063;28;20256;-80
2022/06/09 05:08:46;;;;;;;51.50;48.90;;;15.80;99.90;;;;;;5014760;28;20183;-80
2022/06/09 05:11:11;;;;;;;70.30;66.83;;;15.80;99.90;;;;;;5015232;28;20187;-81
2022/06/09 05:13:38;;;;;;;48.43;46.03;;;15.80;99.90;;;;;;5014055;28;20215;-79
2022/06/09 05:16:04;;;;;;;20.70;19.40;;;15.70;99.90;;;;;;5011220;28;20648;-78
2022/06/09 05:18:31;;;;;;;12.00;11.40;;;15.70;99.90;;;;;;5011306;28;20187;-79
2022/06/09 05:20:58;;;;;;;10.57;9.90;;;15.60;99.90;;;;;;5012740;28;20263;-78
2022/06/09 05:23:25;;;;;;;21.57;20.50;;;15.60;99.90;;;;;;5013585;28;20211;-79
2022/06/09 05:25:53;;;;;;;19.17;18.13;;;15.60;99.90;;;;;;5013967;28;20202;-79
2022/06/09 05:28:21;;;;;;;9.93;9.20;;;15.70;99.90;;;;;;5014948;28;20648;-80
2022/06/09 05:30:47;;;;;;;58.27;55.17;;;16.00;99.90;;;;;;5015874;28;20269;-80
2022/06/09 05:33:13;;;;;;;88.37;84.23;;;16.10;99.90;;;;;;5016838;28;20606;-80
2022/06/09 05:35:40;;;;;;;28.50;26.90;;;16.20;99.90;;;;;;5022487;28;20175;-80
2022/06/09 05:46:21;;;;;;;25.00;23.47;;;16.40;99.90;;;;;;5014941;28;20194;-80
2022/06/09 05:48:47;;;;;;;21.67;20.47;;;16.30;99.90;;;;;;5012931;28;20266;-80
2022/06/09 05:51:15;;;;;;;6.20;5.60;;;16.40;99.90;;;;;;5023126;28;20192;-80
2022/06/09 05:53:42;;;;;;;4.80;4.50;;;16.40;99.90;;;;;;5018243;28;20203;-81
2022/06/09 05:56:08;;;;;;;6.40;5.10;;;16.40;99.90;;;;;;5018805;28;20250;-80
2022/06/09 05:58:35;;;;;;;6.80;6.27;;;16.30;99.90;;;;;;5017532;28;20192;-81
2022/06/09 06:01:04;;;;;;;4.80;4.50;;;16.20;99.90;;;;;;5013775;28;20266;-81
2022/06/09 06:03:30;;;;;;;7.70;7.10;;;16.10;99.90;;;;;;5014271;28;20254;-82
2022/06/09 06:08:42;;;;;;;14.87;13.97;;;17.00;99.90;;;;;;5012890;28;20674;-81
2022/06/09 06:11:08;;;;;;;48.93;46.33;;;17.20;99.90;;;;;;5013479;28;20678;-72
2022/06/09 06:13:34;;;;;;;17.83;16.93;;;18.10;99.90;;;;;;5011178;28;20306;-72
2022/06/09 06:16:00;;;;;;;49.83;47.10;;;19.00;99.90;;;;;;5012501;28;20211;-81
2022/06/09 06:18:28;;;;;;;35.70;33.70;;;19.40;99.90;;;;;;5018075;28;20208;-82
2022/06/09 06:20:55;;;;;;;13.73;12.53;;;19.40;99.90;;;;;;5019190;28;20274;-82
2022/06/09 06:23:25;;;;;;;10.57;9.87;;;19.40;99.90;;;;;;5023983;28;20250;-81
2022/06/09 06:25:52;;;;;;;7.43;6.00;;;19.40;99.90;;;;;;5014868;28;20558;-80
2022/06/09 06:28:20;;;;;;;7.13;6.63;;;19.60;99.90;;;;;;5014075;28;20704;-82
2022/06/09 06:30:46;;;;;;;6.70;6.30;;;19.50;99.90;;;;;;5016925;28;20192;-82
2022/06/09 06:33:12;;;;;;;6.73;6.23;;;19.80;99.90;;;;;;5014191;28;20218;-82
2022/06/09 06:35:38;;;;;;;10.80;10.25;;;20.20;99.90;;;;;;5014708;28;20175;-82
2022/06/09 06:38:04;;;;;;;5.25;4.47;;;20.30;99.90;;;;;;5013492;28;20220;-82
2022/06/09 06:40:30;;;;;;;5.40;5.00;;;19.90;99.90;;;;;;5013378;28;20226;-82
2022/06/09 06:42:55;;;;;;;14.23;13.33;;;19.10;99.90;;;;;;5013076;28;20195;-82
2022/06/09 06:45:21;;;;;;;16.57;15.60;;;18.90;99.90;;;;;;5014822;28;20198;-82
2022/06/09 06:47:47;;;;;;;11.40;10.60;;;19.40;99.90;;;;;;5013685;28;20266;-80
2022/06/09 06:50:13;;;;;;;6.73;6.40;;;19.80;99.90;;;;;;5014101;28;20207;-82
2022/06/09 06:52:40;;;;;;;6.07;5.63;;;20.20;99.90;;;;;;5014631;28;20183;-82
2022/06/09 06:55:07;;;;;;;10.63;10.03;;;20.40;99.90;;;;;;5007012;28;20273;-82
2022/06/09 06:57:33;;;;;;;24.73;23.42;;;20.90;99.90;;;;;;5011128;28;20215;-82
2022/06/09 07:00:00;;;;;;;14.53;13.73;;;20.80;99.90;;;;;;5012422;28;20195;-82
2022/06/09 07:02:26;;;;;;;72.10;68.60;;;20.00;99.90;;;;;;5016276;28;20191;-82
2022/06/09 07:04:52;;;;;;;38.97;36.90;;;19.20;99.90;;;;;;5028614;28;20283;-82
2022/06/09 07:07:18;;;;;;;6.60;6.17;;;18.50;99.90;;;;;;5038873;28;20180;-81
2022/06/09 07:09:43;;;;;;;8.73;8.10;;;18.90;99.90;;;;;;5025321;28;20284;-81
2022/06/09 07:12:10;;;;;;;30.20;28.33;;;19.80;99.90;;;;;;5034148;28;20243;-82
2022/06/09 07:14:36;;;;;;;27.40;25.77;;;20.50;99.90;;;;;;5031554;28;20710;-74
2022/06/09 07:17:02;;;;;;;12.73;11.70;;;20.60;99.90;;;;;;5011676;28;20212;-74
2022/06/09 07:19:29;;;;;;;56.77;53.90;;;20.10;99.90;;;;;;5014802;28;20183;-74
2022/06/09 07:21:55;;;;;;;84.27;80.23;;;19.70;99.90;;;;;;5013626;28;20667;-74
2022/06/09 07:24:21;;;;;;;94.93;90.03;;;19.80;99.90;;;;;;5012827;28;20196;-73
2022/06/09 07:26:47;;;;;;;60.40;57.42;;;19.80;99.90;;;;;;5014147;28;20202;-74
2022/06/09 07:29:13;;;;;;;63.67;60.33;;;20.30;99.90;;;;;;5014637;28;20222;-73
2022/06/09 07:31:39;;;;;;;47.00;44.67;;;20.40;99.90;;;;;;5013821;28;20266;-73
2022/06/09 07:34:05;;;;;;;51.40;48.50;;;19.90;99.90;;;;;;5015019;28;20203;-73
2022/06/09 07:36:32;;;;;;;96.60;91.67;;;19.40;99.90;;;;;;5013917;28;20223;-74
2022/06/09 07:38:58;;;;;;;11.37;10.67;;;18.90;99.90;;;;;;5012085;28;20176;-75
2022/06/09 07:41:24;;;;;;;6.40;4.30;;;18.50;99.90;;;;;;5013134;28;20187;-74
2022/06/09 07:43:50;;;;;;;12.70;11.73;;;18.30;99.90;;;;;;5014115;28;20691;-75
2022/06/09 07:46:16;;;;;;;16.47;15.27;;;18.00;99.90;;;;;;5014222;28;20561;-75
2022/06/09 07:48:44;;;;;;;8.57;7.03;;;17.90;99.90;;;;;;5012506;28;20635;-75
2022/06/09 07:51:11;;;;;;;6.03;5.57;;;17.80;99.90;;;;;;5014335;28;20187;-75
2022/06/09 07:53:37;;;;;;;8.93;6.90;;;17.70;99.90;;;;;;5014353;28;20203;-74
2022/06/09 07:56:03;;;;;;;5.77;5.30;;;17.60;99.90;;;;;;5014296;28;20222;-75
2022/06/09 07:58:29;;;;;;;7.70;4.57;;;17.50;99.90;;;;;;5013034;28;20644;-75
2022/06/09 08:00:55;;;;;;;7.40;4.07;;;17.30;99.90;;;;;;5014804;28;20188;-76
2022/06/09 08:03:24;;;;;;;5.20;4.70;;;17.10;99.90;;;;;;5015005;28;20185;-77
2022/06/09 08:05:50;;;;;;;5.17;4.67;;;17.50;99.90;;;;;;5014723;28;20180;-77
2022/06/09 08:08:16;;;;;;;11.13;10.23;;;18.50;99.90;;;;;;5013578;28;20598;-77
2022/06/09 08:10:43;;;;;;;15.77;14.47;;;19.00;99.90;;;;;;5014536;28;20195;-77
2022/06/09 08:13:09;;;;;;;13.47;12.57;;;18.80;99.90;;;;;;5011901;28;20258;-77
2022/06/09 08:15:36;;;;;;;8.77;8.23;;;18.90;99.90;;;;;;4999259;28;20192;-77
2022/06/09 08:18:02;;;;;;;16.90;15.67;;;19.70;99.90;;;;;;5009215;28;20699;-77
2022/06/09 08:20:31;;;;;;;18.10;16.93;;;20.60;99.90;;;;;;5003863;28;20267;-77
2022/06/09 08:23:05;;;;;;;6.95;6.45;;;21.20;99.90;;;;;;5013723;28;20180;-77
2022/06/09 08:25:31;;;;;;;6.93;6.33;;;20.80;99.90;;;;;;5014142;28;20266;-77
2022/06/09 08:27:57;;;;;;;7.53;6.97;;;20.60;99.90;;;;;;5014380;28;20187;-77
2022/06/09 08:30:23;;;;;;;13.90;12.77;;;21.00;99.90;;;;;;5016039;28;20215;-77
2022/06/09 08:32:49;;;;;;;19.42;18.30;;;21.10;99.90;;;;;;5014806;28;20180;-77
2022/06/09 08:35:17;;;;;;;9.20;8.50;;;20.40;99.90;;;;;;5015970;28;20200;-76
2022/06/09 08:37:48;;;;;;;8.10;7.43;;;19.60;99.90;;;;;;5011603;28;20211;-76
2022/06/09 08:40:19;;;;;;;12.47;11.40;;;19.30;99.90;;;;;;5013499;28;20184;-77
2022/06/09 08:43:19;;;;;;;12.13;11.10;;;19.70;99.90;;;;;;5012194;28;20215;-77
2022/06/09 08:45:46;;;;;;;6.87;6.37;;;20.90;99.90;;;;;;5011752;28;20314;-76
2022/06/09 08:48:20;;;;;;;22.20;21.10;;;21.30;99.90;;;;;;5012315;28;20184;-76
2022/06/09 08:51:04;;;;;;;28.88;27.30;;;21.50;99.90;;;;;;5010458;28;20183;-77
2022/06/09 08:53:37;;;;;;;33.05;31.15;;;21.40;99.90;;;;;;5013586;28;20250;-76
2022/06/09 08:56:21;;;;;;;14.87;13.83;;;20.90;99.90;;;;;;5013645;28;20226;-76
2022/06/09 08:58:53;;;;;;;10.17;9.43;;;20.20;99.90;;;;;;5012873;28;20199;-76
2022/06/09 09:01:59;;;;;;;21.93;20.20;;;20.10;99.90;;;;;;5012795;28;20184;-76
2022/06/09 09:04:31;;;;;;;37.47;35.38;;;20.70;99.90;;;;;;5014283;28;20234;-75
2022/06/09 09:07:25;;;;;;;36.55;34.47;;;21.40;99.90;;;;;;5006721;28;20548;-76
2022/06/09 09:09:56;;;;;;;48.57;44.73;;;22.10;99.90;;;;;;5011459;28;20617;-78
2022/06/09 09:12:41;;;;;;;28.20;26.67;;;22.10;99.90;;;;;;5003606;28;20184;-78
2022/06/09 09:15:17;;;;;;;34.70;32.50;;;21.30;99.90;;;;;;5025297;23;20223;-74
2022/06/09 09:18:07;;;;;;;38.47;36.27;;;20.30;99.90;;;;;;5011009;28;20254;-74
2022/06/09 09:20:38;;;;;;;23.33;21.93;;;19.70;99.90;;;;;;5013072;28;20179;-75
2022/06/09 09:23:09;;;;;;;26.47;24.87;;;19.70;99.90;;;;;;5014684;28;20180;-74
2022/06/09 09:25:53;;;;;;;39.37;37.27;;;20.90;99.90;;;;;;5046897;28;20206;-74
2022/06/09 09:28:21;;;;;;;1204.22;528.30;;;21.40;99.90;;;;;;5031011;28;20544;-73
2022/06/09 09:31:13;;;;;;;115.13;82.17;;;20.90;99.90;;;;;;5032655;28;20179;-77
2022/06/09 09:33:39;;;;;;;58.67;54.67;;;19.90;99.90;;;;;;5028403;28;20278;-75
2022/06/09 09:36:17;;;;;;;8.50;7.80;;;19.20;99.90;;;;;;5021552;28;20289;-75
2022/06/09 09:38:50;;;;;;;7.30;6.53;;;19.30;99.90;;;;;;5031103;28;20182;-75
2022/06/09 09:41:54;;;;;;;24.03;22.40;;;20.20;99.90;;;;;;5014412;28;20718;-75
2022/06/09 09:44:29;;;;;;;30.67;28.97;;;21.60;99.90;;;;;;5000888;28;20211;-75
2022/06/09 09:46:58;;;;;;;9.70;8.90;;;22.40;99.90;;;;;;5011587;28;20296;-75
2022/06/09 09:49:40;;;;;;;14.53;13.73;;;21.40;99.90;;;;;;5011004;28;20190;-75
2022/06/09 09:52:44;;;;;;;42.97;40.67;;;20.50;99.90;;;;;;5016792;28;20179;-75
2022/06/09 09:55:28;;;;;;;49.00;46.13;;;20.00;99.90;;;;;;5031527;28;20309;-75
2022/06/09 09:58:17;;;;;;;35.90;34.07;;;19.60;99.90;;;;;;5029271;28;20198;-75
2022/06/09 10:00:43;;;;;;;25.93;24.07;;;19.40;99.90;;;;;;5028476;28;20549;-75
2022/06/09 10:09:13;;;;;;;24.20;22.70;;;19.40;99.90;;;;;;5030760;28;20187;-75
2022/06/09 10:11:53;;;;;;;26.07;24.73;;;19.50;99.90;;;;;;5030768;28;20229;-75
2022/06/09 10:14:26;;;;;;;45.33;42.80;;;19.80;99.90;;;;;;5031154;28;20328;-75
2022/06/09 10:16:54;;;;;;;12.33;11.53;;;21.20;99.90;;;;;;5029622;28;20637;-75
2022/06/09 10:19:23;;;;;;;3.55;3.45;;;22.20;99.90;;;;;;5030553;28;20229;-75
2022/06/09 10:21:58;;;;;;;8.02;3.50;;;22.80;99.90;;;;;;5029637;28;20632;-75
2022/06/09 10:25:16;;;;;;;4.75;3.47;;;22.50;99.90;;;;;;5019636;28;20260;-75
2022/06/09 10:27:43;;;;;;;3.80;3.13;;;22.10;99.90;;;;;;5025602;28;20596;-75
2022/06/09 10:30:33;;;;;;;7.68;7.07;;;22.30;99.90;;;;;;5028834;28;20183;-74
2022/06/09 10:33:08;;;;;;;8.68;8.13;;;22.30;99.90;;;;;;5030499;28;20273;-75
2022/06/09 10:35:55;;;;;;;6.50;6.00;;;22.70;99.90;;;;;;5030346;28;20579;-74
2022/06/09 10:38:57;;;;;;;7.60;7.00;;;23.20;99.90;;;;;;5029041;28;20210;-75
2022/06/09 10:41:40;;;;;;;5.03;4.78;;;23.10;99.70;;;;;;5019547;28;20245;-75
2022/06/09 10:44:17;;;;;;;7.95;7.22;;;22.20;99.90;;;;;;5029890;28;20244;-75
2022/06/09 10:55:44;;;;;;;4.68;4.20;;;23.60;99.30;;;;;;5030743;28;20211;-75
2022/06/09 10:58:20;;;;;;;6.13;5.63;;;23.30;98.80;;;;;;5028996;28;20214;-75
2022/06/09 11:00:49;;;;;;;4.15;3.75;;;23.60;99.50;;;;;;5031069;28;20236;-74
2022/06/09 11:03:25;;;;;;;3.90;3.38;;;23.40;97.70;;;;;;5030033;28;20185;-74
2022/06/09 11:06:26;;;;;;;3.92;3.45;;;23.20;98.20;;;;;;5031504;28;20210;-75
2022/06/09 11:08:56;;;;;;;6.25;3.70;;;23.50;98.20;;;;;;5030089;28;20645;-74
2022/06/09 11:11:42;;;;;;;4.65;3.65;;;24.30;97.60;;;;;;5030722;28;20179;-75
2022/06/09 11:14:20;;;;;;;6.25;5.93;;;24.60;96.60;;;;;;5030508;28;20647;-75
2022/06/09 11:16:46;;;;;;;4.45;2.90;;;25.20;95.80;;;;;;5021187;28;20202;-75
2022/06/09 11:19:33;;;;;;;5.43;4.40;;;25.40;93.40;;;;;;5030504;28;20167;-75
2022/06/09 11:22:07;;;;;;;4.32;4.03;;;25.50;93.10;;;;;;5030687;28;20179;-74
2022/06/09 11:24:33;;;;;;;5.07;4.57;;;25.70;92.40;;;;;;5030566;28;20203;-75
2022/06/09 11:27:07;;;;;;;4.68;4.28;;;25.80;91.40;;;;;;5028798;28;20190;-75
2022/06/09 11:30:12;;;;;;;4.70;4.18;;;25.40;93.00;;;;;;5029237;28;20273;-74
2022/06/09 11:32:52;;;;;;;4.55;4.22;;;25.30;91.80;;;;;;5029396;28;20183;-75
2022/06/09 11:35:48;;;;;;;3.75;3.42;;;25.40;91.30;;;;;;5030564;28;20237;-75
2022/06/09 11:38:33;;;;;;;5.97;3.70;;;25.50;91.90;;;;;;5029400;28;20225;-75
2022/06/09 11:41:05;;;;;;;3.65;3.45;;;25.40;91.00;;;;;;5029526;28;20181;-75
2022/06/09 11:43:56;;;;;;;4.53;4.22;;;25.70;91.20;;;;;;5029508;28;20525;-74
2022/06/09 11:46:35;;;;;;;7.55;4.20;;;25.70;89.10;;;;;;5030986;28;20218;-75
2022/06/09 11:49:19;;;;;;;4.75;4.45;;;25.60;90.00;;;;;;5033590;28;20189;-75
2022/06/09 11:51:46;;;;;;;4.57;4.38;;;26.10;89.40;;;;;;5033838;28;20175;-75
2022/06/09 11:54:37;;;;;;;5.45;3.60;;;25.50;90.20;;;;;;5032827;28;20197;-75
2022/06/09 11:57:41;;;;;;;4.28;3.88;;;25.50;87.00;;;;;;5033125;28;20195;-73
2022/06/09 12:00:19;;;;;;;5.05;3.25;;;26.30;86.30;;;;;;5034065;28;20178;-74
2022/06/09 12:03:09;;;;;;;5.05;4.60;;;27.10;83.60;;;;;;5033500;28;20190;-74
2022/06/09 12:06:00;;;;;;;6.75;5.93;;;27.20;82.10;;;;;;5033739;28;20199;-74
2022/06/09 12:08:34;;;;;;;3.92;3.65;;;26.20;84.20;;;;;;5031768;28;20179;-74
2022/06/09 12:11:05;;;;;;;6.03;5.47;;;25.20;85.40;;;;;;5033891;28;20190;-75
2022/06/09 12:14:00;;;;;;;7.13;6.65;;;24.90;89.80;;;;;;5034278;28;20655;-73
2022/06/09 12:16:31;;;;;;;4.20;3.78;;;24.60;90.30;;;;;;5033698;28;20598;-73
2022/06/09 12:19:22;;;;;;;9.98;4.30;;;25.30;90.40;;;;;;5024583;28;20180;-73
2022/06/09 12:22:16;;;;;;;5.93;4.25;;;25.40;89.80;;;;;;5013880;28;20188;-73
2022/06/09 12:25:03;;;;;;;4.32;3.50;;;24.30;91.30;;;;;;5024259;28;20670;-73
2022/06/09 12:27:35;;;;;;;3.83;3.63;;;24.90;90.50;;;;;;5031406;28;20244;-73
2022/06/09 12:30:01;;;;;;;5.00;4.32;;;25.70;88.00;;;;;;5032313;28;20183;-73
2022/06/09 12:32:37;;;;;;;5.95;5.38;;;25.80;86.40;;;;;;5032639;28;20197;-73
2022/06/09 12:35:15;;;;;;;4.88;4.25;;;25.10;85.70;;;;;;5034058;28;20352;-73
2022/06/09 12:37:53;;;;;;;5.40;4.90;;;25.60;86.70;;;;;;5032142;28;20297;-72
2022/06/09 12:40:23;;;;;;;5.28;4.70;;;25.90;80.20;;;;;;5032806;28;20198;-73
2022/06/09 12:42:51;;;;;;;6.45;6.15;;;26.00;79.40;;;;;;5034122;28;20186;-72
2022/06/09 12:45:24;;;;;;;10.25;9.32;;;26.20;79.20;;;;;;5035703;28;20195;-73
2022/06/09 12:48:12;;;;;;;8.20;7.68;;;26.00;78.80;;;;;;5031444;28;20187;-73
2022/06/09 12:50:46;;;;;;;18.10;17.20;;;26.20;78.60;;;;;;5032563;28;20186;-73
2022/06/09 12:53:39;;;;;;;19.60;18.58;;;26.70;77.20;;;;;;5031577;28;20673;-73
2022/06/09 12:56:21;;;;;;;13.88;13.18;;;27.20;78.10;;;;;;5031084;28;20218;-73
2022/06/09 12:58:48;;;;;;;14.73;13.93;;;27.80;78.10;;;;;;5031080;28;20213;-73
2022/06/09 13:01:25;;;;;;;13.85;12.82;;;28.30;75.60;;;;;;5031521;28;20305;-71
2022/06/09 13:03:55;;;;;;;10.82;10.23;;;28.50;71.90;;;;;;5031857;28;20183;-73
2022/06/09 13:06:39;;;;;;;9.20;8.18;;;28.20;73.00;;;;;;5032680;28;20639;-71
2022/06/09 13:09:33;;;;;;;10.32;9.63;;;28.00;72.00;;;;;;5030991;28;20708;-73
2022/06/09 13:15:08;;;;;;;10.52;9.75;;;28.10;70.30;;;;;;5032113;28;20215;-72
2022/06/09 13:17:38;;;;;;;10.25;9.65;;;27.70;72.00;;;;;;5030464;28;20210;-72
2022/06/09 13:20:14;;;;;;;13.80;12.95;;;27.00;71.30;;;;;;5032452;28;20182;-71
2022/06/09 13:22:43;;;;;;;13.07;12.32;;;27.20;71.40;;;;;;5032471;28;20209;-71
2022/06/09 13:25:24;;;;;;;10.55;9.80;;;27.60;70.40;;;;;;5031225;28;20224;-71
2022/06/09 13:27:50;;;;;;;17.92;17.02;;;27.20;69.40;;;;;;5030392;28;20190;-71
2022/06/09 13:30:47;;;;;;;19.63;18.38;;;26.30;70.90;;;;;;5030271;28;20672;-71
2022/06/09 13:33:45;;;;;;;19.20;18.10;;;26.40;71.40;;;;;;5030396;28;20182;-70
2022/06/09 13:36:37;;;;;;;20.83;19.52;;;26.00;70.40;;;;;;5030767;28;20207;-72
2022/06/09 13:39:43;;;;;;;27.88;26.30;;;25.70;71.70;;;;;;5030415;28;20206;-71
2022/06/09 13:42:17;;;;;;;15.80;14.90;;;26.40;69.90;;;;;;5032116;28;20670;-72
2022/06/09 13:44:59;;;;;;;19.95;18.85;;;27.00;71.20;;;;;;5032136;28;20252;-71
2022/06/09 13:47:28;;;;;;;33.53;31.65;;;26.00;70.70;;;;;;5031176;28;20253;-72
2022/06/09 13:50:12;;;;;;;12.25;9.95;;;24.90;74.30;;;;;;5026710;28;20191;-71
2022/06/09 13:53:24;;;;;;;7.65;6.95;;;24.70;75.40;;;;;;5032094;28;20646;-71
2022/06/09 13:55:50;;;;;;;11.77;10.80;;;26.30;73.20;;;;;;5031022;28;20222;-72
2022/06/09 13:58:16;;;;;;;11.52;10.75;;;26.50;70.40;;;;;;5030969;28;20617;-72
2022/06/09 14:00:52;;;;;;;17.83;16.67;;;27.20;69.00;;;;;;5031975;28;20553;-72
2022/06/09 14:03:27;;;;;;;9.82;9.27;;;28.20;67.70;;;;;;5031581;28;20626;-72
2022/06/09 14:06:01;;;;;;;13.45;12.55;;;28.60;65.50;;;;;;5031699;28;20256;-72
2022/06/09 14:08:29;;;;;;;15.45;14.35;;;27.10;68.60;;;;;;5031213;28;20358;-72
2022/06/09 14:10:55;;;;;;;13.20;12.10;;;27.00;69.10;;;;;;5030706;28;20182;-71
2022/06/09 14:13:21;;;;;;;11.95;11.15;;;27.90;64.70;;;;;;5031799;28;20587;-72
2022/06/09 14:15:49;;;;;;;13.52;11.07;;;28.60;65.10;;;;;;5032266;28;20211;-72
2022/06/09 14:18:32;;;;;;;11.48;10.75;;;29.00;63.30;;;;;;5031563;28;20218;-72
2022/06/09 14:20:58;;;;;;;13.30;12.55;;;29.20;62.10;;;;;;5031963;28;20266;-71
2022/06/09 14:23:35;;;;;;;15.57;14.77;;;27.70;64.20;;;;;;5039984;28;20190;-72
2022/06/09 14:26:13;;;;;;;15.95;14.88;;;25.60;65.30;;;;;;5041612;28;20241;-71
2022/06/09 14:28:39;;;;;;;19.70;18.55;;;25.90;67.30;;;;;;5030749;28;20198;-72
2022/06/09 14:31:04;;;;;;;19.02;17.63;;;27.00;66.10;;;;;;5031402;28;20178;-71
2022/06/09 14:33:30;;;;;;;14.90;14.02;;;27.10;65.20;;;;;;5030160;28;20186;-72
2022/06/09 14:35:56;;;;;;;13.18;12.35;;;27.30;65.50;;;;;;5031239;28;20706;-72
2022/06/09 14:38:22;;;;;;;16.10;15.13;;;27.50;63.90;;;;;;5030124;28;20207;-71
2022/06/09 14:40:51;;;;;;;19.25;17.70;;;27.70;65.30;;;;;;5030953;28;20221;-72
2022/06/09 14:43:17;;;;;;;15.43;14.57;;;27.30;65.60;;;;;;5029819;28;20605;-72
2022/06/09 14:45:55;;;;;;;20.98;19.58;;;26.40;67.50;;;;;;5031184;28;20238;-71
2022/06/09 14:48:23;;;;;;;21.70;20.52;;;26.40;68.90;;;;;;5029157;28;20183;-72
2022/06/09 14:50:53;;;;;;;17.38;16.40;;;27.70;65.60;;;;;;5030403;28;20186;-72
2022/06/09 14:53:20;;;;;;;19.30;17.98;;;28.00;64.80;;;;;;5030735;28;20202;-72
2022/06/09 14:55:48;;;;;;;18.65;17.50;;;26.50;66.80;;;;;;5029852;28;20203;-71
2022/06/09 14:58:16;;;;;;;13.50;12.68;;;25.00;71.00;;;;;;5030192;28;20558;-72
2022/06/09 15:00:43;;;;;;;8.73;4.07;;;24.30;73.90;;;;;;5029892;28;20266;-72
2022/06/09 15:03:09;;;;;;;4.85;4.53;;;23.90;77.20;;;;;;5030832;28;20206;-72
2022/06/09 15:05:36;;;;;;;5.32;4.85;;;23.80;79.20;;;;;;5030819;28;20199;-72
2022/06/09 15:08:03;;;;;;;6.18;5.68;;;23.60;78.60;;;;;;5029947;28;20629;-72
2022/06/09 15:10:42;;;;;;;5.75;5.18;;;23.10;78.60;;;;;;5030975;28;20183;-72
2022/06/09 15:13:08;;;;;;;5.72;5.03;;;22.80;79.90;;;;;;5018876;28;20238;-72
2022/06/09 15:15:36;;;;;;;7.53;3.70;;;22.60;79.40;;;;;;5026497;23;20228;-74
2022/06/09 15:18:07;;;;;;;4.55;4.28;;;22.30;80.00;;;;;;5009902;28;20250;-74
2022/06/09 15:20:35;;;;;;;8.82;4.57;;;22.20;81.90;;;;;;5010289;28;20180;-75
2022/06/09 15:23:03;;;;;;;4.82;3.67;;;22.60;80.90;;;;;;5013486;28;20230;-74
2022/06/09 15:25:28;;;;;;;5.15;4.65;;;24.10;78.20;;;;;;5023918;28;20663;-75
2022/06/09 15:27:55;;;;;;;4.85;4.45;;;26.00;73.50;;;;;;5032681;28;20179;-75
2022/06/09 15:30:31;;;;;;;7.30;6.75;;;25.90;71.10;;;;;;5034374;28;20179;-75
2022/06/09 15:32:58;;;;;;;14.10;13.13;;;26.90;68.10;;;;;;5033097;28;20233;-75
2022/06/09 15:35:24;;;;;;;20.15;18.90;;;27.90;63.70;;;;;;5032690;28;20202;-75
2022/06/09 15:37:50;;;;;;;15.93;14.77;;;26.70;66.30;;;;;;5033448;28;20305;-75
2022/06/09 15:40:20;;;;;;;7.22;6.75;;;24.90;69.40;;;;;;5034569;28;20638;-75
2022/06/09 15:42:46;;;;;;;5.82;4.72;;;24.00;74.40;;;;;;5033251;28;20221;-75
2022/06/09 15:45:15;;;;;;;5.35;4.95;;;23.30;77.20;;;;;;5032836;28;20565;-77
2022/06/09 15:47:41;;;;;;;5.47;4.43;;;22.80;80.30;;;;;;5032886;28;20183;-73
2022/06/09 15:50:20;;;;;;;8.25;4.25;;;23.10;83.00;;;;;;5033732;28;20205;-75
2022/06/09 15:52:46;;;;;;;3.35;3.08;;;24.60;86.90;;;;;;5033027;28;20659;-75
2022/06/09 15:55:13;;;;;;;5.43;3.63;;;25.00;80.50;;;;;;5033941;28;20341;-75
2022/06/09 15:57:39;;;;;;;4.57;4.20;;;25.10;80.50;;;;;;5032149;28;20235;-74
2022/06/09 16:00:08;;;;;;;5.78;5.35;;;25.70;74.50;;;;;;5032805;28;20207;-74
2022/06/09 16:02:35;;;;;;;4.97;4.47;;;25.80;75.10;;;;;;5033139;28;20830;-76
2022/06/09 16:05:02;;;;;;;7.22;4.72;;;26.20;74.60;;;;;;5032787;28;20239;-74
2022/06/09 16:07:28;;;;;;;5.45;5.13;;;25.90;74.60;;;;;;5033392;28;20179;-76
2022/06/09 16:09:54;;;;;;;5.72;5.32;;;24.60;76.60;;;;;;5030645;28;20542;-74
2022/06/09 16:12:20;;;;;;;5.05;4.40;;;23.40;81.40;;;;;;5031633;28;20183;-74
2022/06/09 16:14:47;;;;;;;6.53;4.07;;;22.50;82.90;;;;;;5029660;28;20211;-75
2022/06/09 16:17:14;;;;;;;5.30;2.92;;;22.40;83.10;;;;;;5032311;28;20364;-75
2022/06/09 16:19:40;;;;;;;4.03;3.70;;;22.70;83.00;;;;;;5030428;28;20182;-75
2022/06/09 16:22:06;;;;;;;4.80;4.07;;;23.90;80.60;;;;;;5032924;28;20658;-76
2022/06/09 16:24:32;;;;;;;4.03;3.50;;;23.50;79.40;;;;;;5033377;28;20175;-75
2022/06/09 16:26:58;;;;;;;3.80;3.45;;;22.70;81.50;;;;;;5031409;28;20295;-75
2022/06/09 16:29:24;;;;;;;5.82;3.50;;;22.10;83.70;;;;;;5034009;28;20179;-76